sensor_id;sensor_type;location;lat;lon;timestamp;P1;durP1;ratioP1;P2;durP2;ratioP2
2458;SDS011;1241;50.920;6.936;2022-09-21T00:00:22;11.55;;;7.28;;
2458;SDS011;1241;50.920;6.936;2022-09-21T00:02:49;8.05;;;6.70;;
2458;SDS011;1241;50.920;6.936;2022-09-21T00:05:15;7.25;;;5.32;;
2458;SDS011;1241;50.920;6.936;2022-09-21T00:07:41;5.78;;;5.03;;
2458;SDS011;1241;50.920;6.936;2022-09-21T00:10:08;7.38;;;5.63;;
2458;SDS011;1241;50.920;6.936;2022-09-21T00:12:34;6.82;;;5.00;;
2458;SDS011;1241;50.920;6.936;2022-09-21T00:15:04;7.57;;;4.90;;
2458;SDS011;1241;50.920;6.936;2022-09-21T00:17:31;9.98;;;4.70;;
2458;SDS011;1241;50.920;6.936;2022-09-21T00:19:57;6.70;;;5.30;;
2458;SDS011;1241;50.920;6.936;2022-09-21T00:22:22;7.50;;;4.67;;
2458;SDS011;1241;50.920;6.936;2022-09-21T00:24:49;5.65;;;5.15;;
2458;SDS011;1241;50.920;6.936;2022-09-21T00:27:14;5.43;;;4.37;;
2458;SDS011;1241;50.920;6.936;2022-09-21T00:29:40;8.00;;;5.27;;
2458;SDS011;1241;50.920;6.936;2022-09-21T00:32:06;8.77;;;5.83;;
2458;SDS011;1241;50.920;6.936;2022-09-21T00:34:31;12.30;;;6.10;;
2458;SDS011;1241;50.920;6.936;2022-09-21T00:36:57;9.00;;;6.30;;
2458;SDS011;1241;50.920;6.936;2022-09-21T00:39:23;8.60;;;5.10;;
2458;SDS011;1241;50.920;6.936;2022-09-21T00:41:48;8.37;;;5.50;;
2458;SDS011;1241;50.920;6.936;2022-09-21T00:44:24;8.43;;;6.22;;
2458;SDS011;1241;50.920;6.936;2022-09-21T00:46:53;8.60;;;5.63;;
2458;SDS011;1241;50.920;6.936;2022-09-21T00:49:21;8.27;;;4.72;;
2458;SDS011;1241;50.920;6.936;2022-09-21T00:51:48;5.63;;;5.00;;
2458;SDS011;1241;50.920;6.936;2022-09-21T00:54:19;7.18;;;4.80;;
2458;SDS011;1241;50.920;6.936;2022-09-21T00:56:49;9.85;;;6.43;;
2458;SDS011;1241;50.920;6.936;2022-09-21T00:59:15;6.83;;;5.83;;
2458;SDS011;1241;50.920;6.936;2022-09-21T01:01:42;12.88;;;6.05;;
2458;SDS011;1241;50.920;6.936;2022-09-21T01:04:08;10.17;;;5.70;;
2458;SDS011;1241;50.920;6.936;2022-09-21T01:06:35;7.68;;;6.47;;
2458;SDS011;1241;50.920;6.936;2022-09-21T01:09:02;9.65;;;5.47;;
2458;SDS011;1241;50.920;6.936;2022-09-21T01:11:32;7.70;;;6.00;;
2458;SDS011;1241;50.920;6.936;2022-09-21T01:22:17;11.75;;;6.35;;
2458;SDS011;1241;50.920;6.936;2022-09-21T01:25:03;11.88;;;6.88;;
2458;SDS011;1241;50.920;6.936;2022-09-21T01:28:06;8.48;;;5.50;;
2458;SDS011;1241;50.920;6.936;2022-09-21T01:30:36;8.35;;;5.47;;
2458;SDS011;1241;50.920;6.936;2022-09-21T01:33:08;7.25;;;6.18;;
2458;SDS011;1241;50.920;6.936;2022-09-21T01:35:41;8.63;;;5.88;;
2458;SDS011;1241;50.920;6.936;2022-09-21T01:38:25;7.85;;;5.45;;
2458;SDS011;1241;50.920;6.936;2022-09-21T01:40:56;8.88;;;5.30;;
2458;SDS011;1241;50.920;6.936;2022-09-21T01:43:28;6.35;;;4.82;;
2458;SDS011;1241;50.920;6.936;2022-09-21T01:45:58;6.13;;;5.30;;
2458;SDS011;1241;50.920;6.936;2022-09-21T01:48:26;8.63;;;5.75;;
2458;SDS011;1241;50.920;6.936;2022-09-21T01:51:00;6.40;;;4.65;;
2458;SDS011;1241;50.920;6.936;2022-09-21T01:53:36;10.52;;;6.43;;
2458;SDS011;1241;50.920;6.936;2022-09-21T01:56:24;13.10;;;6.53;;
2458;SDS011;1241;50.920;6.936;2022-09-21T01:59:02;8.23;;;5.78;;
2458;SDS011;1241;50.920;6.936;2022-09-21T02:02:02;6.15;;;5.50;;
2458;SDS011;1241;50.920;6.936;2022-09-21T02:04:33;8.63;;;6.22;;
2458;SDS011;1241;50.920;6.936;2022-09-21T02:06:59;10.93;;;6.85;;
2458;SDS011;1241;50.920;6.936;2022-09-21T02:09:25;11.20;;;7.07;;
2458;SDS011;1241;50.920;6.936;2022-09-21T02:11:51;8.60;;;6.35;;
2458;SDS011;1241;50.920;6.936;2022-09-21T02:14:21;7.32;;;6.63;;
2458;SDS011;1241;50.920;6.936;2022-09-21T02:19:35;9.75;;;7.95;;
2458;SDS011;1241;50.920;6.936;2022-09-21T02:22:14;8.55;;;7.00;;
2458;SDS011;1241;50.920;6.936;2022-09-21T02:25:08;11.32;;;7.03;;
2458;SDS011;1241;50.920;6.936;2022-09-21T02:27:51;10.38;;;8.55;;
2458;SDS011;1241;50.920;6.936;2022-09-21T02:30:20;10.43;;;7.47;;
2458;SDS011;1241;50.920;6.936;2022-09-21T02:33:09;7.78;;;6.65;;
2458;SDS011;1241;50.920;6.936;2022-09-21T02:38:35;8.55;;;7.38;;
2458;SDS011;1241;50.920;6.936;2022-09-21T02:41:12;10.18;;;8.20;;
2458;SDS011;1241;50.920;6.936;2022-09-21T02:44:12;11.55;;;7.82;;
2458;SDS011;1241;50.920;6.936;2022-09-21T02:46:52;9.02;;;8.00;;
2458;SDS011;1241;50.920;6.936;2022-09-21T02:49:23;12.45;;;7.97;;
2458;SDS011;1241;50.920;6.936;2022-09-21T02:51:59;9.20;;;7.85;;
2458;SDS011;1241;50.920;6.936;2022-09-21T02:54:30;9.70;;;8.27;;
2458;SDS011;1241;50.920;6.936;2022-09-21T02:56:58;8.93;;;8.13;;
2458;SDS011;1241;50.920;6.936;2022-09-21T02:59:25;8.95;;;8.05;;
2458;SDS011;1241;50.920;6.936;2022-09-21T03:01:51;11.45;;;7.93;;
2458;SDS011;1241;50.920;6.936;2022-09-21T03:04:19;10.32;;;8.50;;
2458;SDS011;1241;50.920;6.936;2022-09-21T03:06:46;16.25;;;9.38;;
2458;SDS011;1241;50.920;6.936;2022-09-21T03:09:12;9.02;;;7.95;;
2458;SDS011;1241;50.920;6.936;2022-09-21T03:11:38;10.13;;;7.97;;
2458;SDS011;1241;50.920;6.936;2022-09-21T03:14:06;10.75;;;8.27;;
2458;SDS011;1241;50.920;6.936;2022-09-21T03:16:33;11.95;;;9.55;;
2458;SDS011;1241;50.920;6.936;2022-09-21T03:19:00;10.25;;;8.32;;
2458;SDS011;1241;50.920;6.936;2022-09-21T03:21:25;9.60;;;8.70;;
2458;SDS011;1241;50.920;6.936;2022-09-21T03:23:51;11.20;;;8.90;;
2458;SDS011;1241;50.920;6.936;2022-09-21T03:26:17;12.63;;;9.53;;
2458;SDS011;1241;50.920;6.936;2022-09-21T03:28:47;10.30;;;9.00;;
2458;SDS011;1241;50.920;6.936;2022-09-21T03:31:13;11.90;;;9.07;;
2458;SDS011;1241;50.920;6.936;2022-09-21T03:33:39;10.33;;;9.43;;
2458;SDS011;1241;50.920;6.936;2022-09-21T03:36:05;13.67;;;9.73;;
2458;SDS011;1241;50.920;6.936;2022-09-21T03:38:32;10.57;;;8.80;;
2458;SDS011;1241;50.920;6.936;2022-09-21T03:40:58;13.63;;;10.43;;
2458;SDS011;1241;50.920;6.936;2022-09-21T03:43:24;13.00;;;9.40;;
2458;SDS011;1241;50.920;6.936;2022-09-21T03:45:49;11.17;;;10.07;;
2458;SDS011;1241;50.920;6.936;2022-09-21T03:48:15;12.90;;;10.40;;
2458;SDS011;1241;50.920;6.936;2022-09-21T03:50:41;11.60;;;10.07;;
2458;SDS011;1241;50.920;6.936;2022-09-21T03:53:07;10.77;;;9.63;;
2458;SDS011;1241;50.920;6.936;2022-09-21T03:55:34;11.68;;;8.52;;
2458;SDS011;1241;50.920;6.936;2022-09-21T03:58:00;9.43;;;8.32;;
2458;SDS011;1241;50.920;6.936;2022-09-21T04:00:26;11.40;;;8.33;;
2458;SDS011;1241;50.920;6.936;2022-09-21T04:02:53;13.13;;;11.40;;
2458;SDS011;1241;50.920;6.936;2022-09-21T04:05:19;14.43;;;9.55;;
2458;SDS011;1241;50.920;6.936;2022-09-21T04:07:45;13.87;;;10.33;;
2458;SDS011;1241;50.920;6.936;2022-09-21T04:10:12;12.95;;;10.48;;
2458;SDS011;1241;50.920;6.936;2022-09-21T04:12:40;12.13;;;10.93;;
2458;SDS011;1241;50.920;6.936;2022-09-21T04:15:10;11.05;;;9.93;;
2458;SDS011;1241;50.920;6.936;2022-09-21T04:17:43;14.38;;;10.75;;
2458;SDS011;1241;50.920;6.936;2022-09-21T04:20:10;15.75;;;13.20;;
2458;SDS011;1241;50.920;6.936;2022-09-21T04:22:36;12.13;;;10.93;;
2458;SDS011;1241;50.920;6.936;2022-09-21T04:25:05;13.38;;;10.50;;
2458;SDS011;1241;50.920;6.936;2022-09-21T04:27:31;16.48;;;12.38;;
2458;SDS011;1241;50.920;6.936;2022-09-21T04:29:57;14.23;;;12.75;;
2458;SDS011;1241;50.920;6.936;2022-09-21T04:32:23;17.10;;;12.00;;
2458;SDS011;1241;50.920;6.936;2022-09-21T04:34:49;12.80;;;10.97;;
2458;SDS011;1241;50.920;6.936;2022-09-21T04:37:15;14.63;;;13.00;;
2458;SDS011;1241;50.920;6.936;2022-09-21T04:39:41;13.55;;;11.60;;
2458;SDS011;1241;50.920;6.936;2022-09-21T04:42:07;11.73;;;10.63;;
2458;SDS011;1241;50.920;6.936;2022-09-21T04:44:33;12.10;;;10.82;;
2458;SDS011;1241;50.920;6.936;2022-09-21T04:46:59;11.93;;;10.73;;
2458;SDS011;1241;50.920;6.936;2022-09-21T04:49:24;12.53;;;11.30;;
2458;SDS011;1241;50.920;6.936;2022-09-21T04:51:50;13.13;;;10.70;;
2458;SDS011;1241;50.920;6.936;2022-09-21T04:54:16;13.87;;;11.70;;
2458;SDS011;1241;50.920;6.936;2022-09-21T04:56:41;14.03;;;12.60;;
2458;SDS011;1241;50.920;6.936;2022-09-21T04:59:07;16.30;;;11.93;;
2458;SDS011;1241;50.920;6.936;2022-09-21T05:01:33;12.80;;;11.17;;
2458;SDS011;1241;50.920;6.936;2022-09-21T05:03:59;16.73;;;12.50;;
2458;SDS011;1241;50.920;6.936;2022-09-21T05:06:30;13.23;;;11.15;;
2458;SDS011;1241;50.920;6.936;2022-09-21T05:08:57;12.38;;;11.05;;
2458;SDS011;1241;50.920;6.936;2022-09-21T05:11:42;14.15;;;12.30;;
2458;SDS011;1241;50.920;6.936;2022-09-21T05:14:08;15.33;;;12.93;;
2458;SDS011;1241;50.920;6.936;2022-09-21T05:16:34;13.27;;;11.88;;
2458;SDS011;1241;50.920;6.936;2022-09-21T05:19:00;14.50;;;11.60;;
2458;SDS011;1241;50.920;6.936;2022-09-21T05:21:26;14.17;;;12.60;;
2458;SDS011;1241;50.920;6.936;2022-09-21T05:23:52;15.50;;;12.73;;
2458;SDS011;1241;50.920;6.936;2022-09-21T05:26:19;13.93;;;11.98;;
2458;SDS011;1241;50.920;6.936;2022-09-21T05:28:45;14.63;;;12.52;;
2458;SDS011;1241;50.920;6.936;2022-09-21T05:33:53;15.80;;;13.73;;
2458;SDS011;1241;50.920;6.936;2022-09-21T05:38:54;19.17;;;15.27;;
2458;SDS011;1241;50.920;6.936;2022-09-21T05:41:21;18.88;;;13.68;;
2458;SDS011;1241;50.920;6.936;2022-09-21T05:43:47;21.63;;;14.80;;
2458;SDS011;1241;50.920;6.936;2022-09-21T05:46:21;18.30;;;13.80;;
2458;SDS011;1241;50.920;6.936;2022-09-21T05:48:54;19.55;;;14.45;;
2458;SDS011;1241;50.920;6.936;2022-09-21T05:51:33;18.00;;;14.40;;
2458;SDS011;1241;50.920;6.936;2022-09-21T05:54:25;20.25;;;14.68;;
2458;SDS011;1241;50.920;6.936;2022-09-21T05:59:37;25.10;;;17.08;;
2458;SDS011;1241;50.920;6.936;2022-09-21T06:02:47;21.77;;;13.82;;
2458;SDS011;1241;50.920;6.936;2022-09-21T06:05:33;17.88;;;13.25;;
2458;SDS011;1241;50.920;6.936;2022-09-21T06:07:59;17.38;;;13.15;;
2458;SDS011;1241;50.920;6.936;2022-09-21T06:10:25;16.40;;;13.03;;
2458;SDS011;1241;50.920;6.936;2022-09-21T06:12:56;14.85;;;12.80;;
2458;SDS011;1241;50.920;6.936;2022-09-21T06:15:21;18.93;;;13.13;;
2458;SDS011;1241;50.920;6.936;2022-09-21T06:17:47;16.33;;;12.53;;
2458;SDS011;1241;50.920;6.936;2022-09-21T06:20:13;15.40;;;12.60;;
2458;SDS011;1241;50.920;6.936;2022-09-21T06:22:38;14.70;;;12.77;;
2458;SDS011;1241;50.920;6.936;2022-09-21T06:25:04;20.80;;;14.17;;
2458;SDS011;1241;50.920;6.936;2022-09-21T06:27:30;19.20;;;12.80;;
2458;SDS011;1241;50.920;6.936;2022-09-21T06:29:56;15.37;;;11.87;;
2458;SDS011;1241;50.920;6.936;2022-09-21T06:32:21;16.43;;;14.00;;
2458;SDS011;1241;50.920;6.936;2022-09-21T06:34:47;19.57;;;14.00;;
2458;SDS011;1241;50.920;6.936;2022-09-21T06:37:14;15.95;;;13.02;;
2458;SDS011;1241;50.920;6.936;2022-09-21T06:39:39;16.73;;;13.57;;
2458;SDS011;1241;50.920;6.936;2022-09-21T06:42:05;18.10;;;13.97;;
2458;SDS011;1241;50.920;6.936;2022-09-21T06:44:31;20.23;;;13.70;;
2458;SDS011;1241;50.920;6.936;2022-09-21T06:46:57;19.50;;;13.47;;
2458;SDS011;1241;50.920;6.936;2022-09-21T06:49:23;16.27;;;13.80;;
2458;SDS011;1241;50.920;6.936;2022-09-21T06:51:48;16.77;;;13.03;;
2458;SDS011;1241;50.920;6.936;2022-09-21T06:54:14;16.77;;;14.60;;
2458;SDS011;1241;50.920;6.936;2022-09-21T06:56:40;18.75;;;14.45;;
2458;SDS011;1241;50.920;6.936;2022-09-21T06:59:07;18.73;;;13.00;;
2458;SDS011;1241;50.920;6.936;2022-09-21T07:01:33;16.55;;;12.32;;
2458;SDS011;1241;50.920;6.936;2022-09-21T07:03:59;13.67;;;11.93;;
2458;SDS011;1241;50.920;6.936;2022-09-21T07:06:25;16.83;;;12.15;;
2458;SDS011;1241;50.920;6.936;2022-09-21T07:08:51;16.17;;;13.37;;
2458;SDS011;1241;50.920;6.936;2022-09-21T07:11:17;15.82;;;13.13;;
2458;SDS011;1241;50.920;6.936;2022-09-21T07:13:43;17.45;;;14.02;;
2458;SDS011;1241;50.920;6.936;2022-09-21T07:16:09;18.10;;;14.03;;
2458;SDS011;1241;50.920;6.936;2022-09-21T07:18:36;19.80;;;13.90;;
2458;SDS011;1241;50.920;6.936;2022-09-21T07:21:04;15.55;;;13.20;;
2458;SDS011;1241;50.920;6.936;2022-09-21T07:23:31;19.17;;;14.30;;
2458;SDS011;1241;50.920;6.936;2022-09-21T07:26:07;22.20;;;15.63;;
2458;SDS011;1241;50.920;6.936;2022-09-21T07:28:35;16.50;;;14.70;;
2458;SDS011;1241;50.920;6.936;2022-09-21T07:33:32;20.20;;;15.05;;
2458;SDS011;1241;50.920;6.936;2022-09-21T07:35:59;20.42;;;15.18;;
2458;SDS011;1241;50.920;6.936;2022-09-21T07:38:25;19.90;;;15.67;;
2458;SDS011;1241;50.920;6.936;2022-09-21T07:40:52;22.02;;;16.70;;
2458;SDS011;1241;50.920;6.936;2022-09-21T07:43:17;25.30;;;17.17;;
2458;SDS011;1241;50.920;6.936;2022-09-21T07:45:50;26.97;;;19.40;;
2458;SDS011;1241;50.920;6.936;2022-09-21T07:48:18;23.35;;;17.88;;
2458;SDS011;1241;50.920;6.936;2022-09-21T07:50:43;24.53;;;19.07;;
2458;SDS011;1241;50.920;6.936;2022-09-21T07:53:09;25.70;;;18.13;;
2458;SDS011;1241;50.920;6.936;2022-09-21T07:55:35;23.23;;;19.37;;
2458;SDS011;1241;50.920;6.936;2022-09-21T07:58:00;22.50;;;19.50;;
2458;SDS011;1241;50.920;6.936;2022-09-21T08:00:44;22.50;;;19.48;;
2458;SDS011;1241;50.920;6.936;2022-09-21T08:03:10;27.57;;;22.03;;
2458;SDS011;1241;50.920;6.936;2022-09-21T08:05:36;23.63;;;18.83;;
2458;SDS011;1241;50.920;6.936;2022-09-21T08:08:02;22.40;;;19.30;;
2458;SDS011;1241;50.920;6.936;2022-09-21T08:10:28;28.90;;;21.80;;
2458;SDS011;1241;50.920;6.936;2022-09-21T08:12:54;23.73;;;20.10;;
2458;SDS011;1241;50.920;6.936;2022-09-21T08:15:20;24.10;;;19.50;;
2458;SDS011;1241;50.920;6.936;2022-09-21T08:17:46;28.53;;;21.93;;
2458;SDS011;1241;50.920;6.936;2022-09-21T08:20:13;28.10;;;22.77;;
2458;SDS011;1241;50.920;6.936;2022-09-21T08:22:39;29.10;;;22.50;;
2458;SDS011;1241;50.920;6.936;2022-09-21T08:25:05;25.75;;;21.35;;
2458;SDS011;1241;50.920;6.936;2022-09-21T08:27:31;23.80;;;19.02;;
2458;SDS011;1241;50.920;6.936;2022-09-21T08:29:57;23.20;;;19.83;;
2458;SDS011;1241;50.920;6.936;2022-09-21T08:32:22;28.03;;;20.30;;
2458;SDS011;1241;50.920;6.936;2022-09-21T08:34:48;26.00;;;22.43;;
2458;SDS011;1241;50.920;6.936;2022-09-21T08:37:14;26.00;;;23.20;;
2458;SDS011;1241;50.920;6.936;2022-09-21T08:39:40;25.85;;;22.48;;
2458;SDS011;1241;50.920;6.936;2022-09-21T08:44:36;24.10;;;20.83;;
2458;SDS011;1241;50.920;6.936;2022-09-21T08:47:08;25.30;;;21.20;;
2458;SDS011;1241;50.920;6.936;2022-09-21T08:49:37;25.23;;;20.52;;
2458;SDS011;1241;50.920;6.936;2022-09-21T08:52:06;21.95;;;19.45;;
2458;SDS011;1241;50.920;6.936;2022-09-21T08:54:39;29.90;;;22.58;;
2458;SDS011;1241;50.920;6.936;2022-09-21T08:57:16;29.58;;;21.45;;
2458;SDS011;1241;50.920;6.936;2022-09-21T08:59:46;25.58;;;20.75;;
2458;SDS011;1241;50.920;6.936;2022-09-21T09:18:47;19.55;;;16.17;;
2458;SDS011;1241;50.920;6.936;2022-09-21T09:21:21;18.80;;;16.75;;
2458;SDS011;1241;50.920;6.936;2022-09-21T09:23:56;20.15;;;17.20;;
2458;SDS011;1241;50.920;6.936;2022-09-21T09:26:32;20.60;;;18.40;;
2458;SDS011;1241;50.920;6.936;2022-09-21T09:29:44;18.45;;;16.45;;
2458;SDS011;1241;50.920;6.936;2022-09-21T09:32:15;20.08;;;17.48;;
2458;SDS011;1241;50.920;6.936;2022-09-21T09:34:52;18.15;;;16.35;;
2458;SDS011;1241;50.920;6.936;2022-09-21T09:37:27;17.00;;;15.00;;
2458;SDS011;1241;50.920;6.936;2022-09-21T09:39:58;17.33;;;15.48;;
2458;SDS011;1241;50.920;6.936;2022-09-21T09:50:27;16.27;;;14.57;;
2458;SDS011;1241;50.920;6.936;2022-09-21T09:52:58;15.43;;;13.90;;
2458;SDS011;1241;50.920;6.936;2022-09-21T09:55:47;18.55;;;14.68;;
2458;SDS011;1241;50.920;6.936;2022-09-21T09:58:16;13.23;;;11.93;;
2458;SDS011;1241;50.920;6.936;2022-09-21T10:00:49;10.63;;;9.52;;
2458;SDS011;1241;50.920;6.936;2022-09-21T10:03:18;10.57;;;9.43;;
2458;SDS011;1241;50.920;6.936;2022-09-21T10:05:45;11.20;;;9.10;;
2458;SDS011;1241;50.920;6.936;2022-09-21T10:10:59;10.82;;;7.72;;
2458;SDS011;1241;50.920;6.936;2022-09-21T10:16:10;9.70;;;7.40;;
2458;SDS011;1241;50.920;6.936;2022-09-21T10:18:38;9.47;;;8.40;;
2458;SDS011;1241;50.920;6.936;2022-09-21T10:21:06;9.13;;;7.93;;
2458;SDS011;1241;50.920;6.936;2022-09-21T10:23:52;11.00;;;8.87;;
2458;SDS011;1241;50.920;6.936;2022-09-21T10:26:34;8.87;;;7.90;;
2458;SDS011;1241;50.920;6.936;2022-09-21T10:31:54;7.53;;;6.33;;
2458;SDS011;1241;50.920;6.936;2022-09-21T10:34:24;8.07;;;7.17;;
2458;SDS011;1241;50.920;6.936;2022-09-21T10:36:53;7.13;;;5.60;;
2458;SDS011;1241;50.920;6.936;2022-09-21T10:39:21;5.20;;;4.17;;
2458;SDS011;1241;50.920;6.936;2022-09-21T10:41:58;4.17;;;3.77;;
2458;SDS011;1241;50.920;6.936;2022-09-21T10:49:47;4.67;;;3.17;;
2458;SDS011;1241;50.920;6.936;2022-09-21T10:52:15;2.97;;;2.77;;
2458;SDS011;1241;50.920;6.936;2022-09-21T10:54:43;4.07;;;2.57;;
2458;SDS011;1241;50.920;6.936;2022-09-21T10:57:13;4.77;;;3.73;;
2458;SDS011;1241;50.920;6.936;2022-09-21T10:59:42;4.97;;;3.53;;
2458;SDS011;1241;50.920;6.936;2022-09-21T11:12:46;5.33;;;2.07;;
2458;SDS011;1241;50.920;6.936;2022-09-21T11:15:19;1.70;;;1.60;;
2458;SDS011;1241;50.920;6.936;2022-09-21T11:18:12;2.10;;;1.83;;
2458;SDS011;1241;50.920;6.936;2022-09-21T11:20:48;2.50;;;2.20;;
2458;SDS011;1241;50.920;6.936;2022-09-21T11:26:33;2.50;;;2.27;;
2458;SDS011;1241;50.920;6.936;2022-09-21T11:29:12;2.30;;;2.03;;
2458;SDS011;1241;50.920;6.936;2022-09-21T11:40:13;7.20;;;3.40;;
2458;SDS011;1241;50.920;6.936;2022-09-21T11:49:02;4.00;;;2.13;;
2458;SDS011;1241;50.920;6.936;2022-09-21T11:51:40;4.63;;;2.43;;
2458;SDS011;1241;50.920;6.936;2022-09-21T12:05:05;6.20;;;4.10;;
2458;SDS011;1241;50.920;6.936;2022-09-21T12:07:58;2.27;;;2.03;;
2458;SDS011;1241;50.920;6.936;2022-09-21T12:13:37;4.47;;;3.20;;
2458;SDS011;1241;50.920;6.936;2022-09-21T12:22:20;4.60;;;2.53;;
2458;SDS011;1241;50.920;6.936;2022-09-21T12:24:58;3.63;;;2.00;;
2458;SDS011;1241;50.920;6.936;2022-09-21T12:27:38;2.87;;;2.43;;
2458;SDS011;1241;50.920;6.936;2022-09-21T12:43:31;5.80;;;2.50;;
2458;SDS011;1241;50.920;6.936;2022-09-21T12:49:33;2.70;;;2.40;;
2458;SDS011;1241;50.920;6.936;2022-09-21T12:52:20;3.87;;;2.50;;
2458;SDS011;1241;50.920;6.936;2022-09-21T12:54:52;4.77;;;2.80;;
2458;SDS011;1241;50.920;6.936;2022-09-21T12:57:40;2.90;;;2.70;;
2458;SDS011;1241;50.920;6.936;2022-09-21T13:00:21;2.37;;;2.10;;
2458;SDS011;1241;50.920;6.936;2022-09-21T13:08:25;5.17;;;2.60;;
2458;SDS011;1241;50.920;6.936;2022-09-21T13:11:01;2.73;;;2.00;;
2458;SDS011;1241;50.920;6.936;2022-09-21T13:16:02;2.67;;;1.90;;
2458;SDS011;1241;50.920;6.936;2022-09-21T13:18:34;3.10;;;2.00;;
2458;SDS011;1241;50.920;6.936;2022-09-21T13:21:17;4.83;;;2.00;;
2458;SDS011;1241;50.920;6.936;2022-09-21T13:23:54;3.70;;;2.30;;
2458;SDS011;1241;50.920;6.936;2022-09-21T13:26:38;1.90;;;1.73;;
2458;SDS011;1241;50.920;6.936;2022-09-21T13:49:59;1.30;;;1.20;;
2458;SDS011;1241;50.920;6.936;2022-09-21T13:57:54;2.37;;;1.33;;
2458;SDS011;1241;50.920;6.936;2022-09-21T14:00:24;1.67;;;1.37;;
2458;SDS011;1241;50.920;6.936;2022-09-21T14:02:58;1.00;;;1.00;;
2458;SDS011;1241;50.920;6.936;2022-09-21T14:10:39;2.30;;;1.60;;
2458;SDS011;1241;50.920;6.936;2022-09-21T14:13:40;2.70;;;1.30;;
2458;SDS011;1241;50.920;6.936;2022-09-21T14:18:57;2.03;;;1.90;;
2458;SDS011;1241;50.920;6.936;2022-09-21T14:21:23;3.50;;;1.57;;
2458;SDS011;1241;50.920;6.936;2022-09-21T14:26:34;1.93;;;1.27;;
2458;SDS011;1241;50.920;6.936;2022-09-21T14:29:20;1.73;;;1.60;;
2458;SDS011;1241;50.920;6.936;2022-09-21T14:32:18;1.37;;;1.27;;
2458;SDS011;1241;50.920;6.936;2022-09-21T14:34:48;1.23;;;1.23;;
2458;SDS011;1241;50.920;6.936;2022-09-21T14:37:32;1.33;;;1.30;;
2458;SDS011;1241;50.920;6.936;2022-09-21T14:40:03;1.53;;;1.20;;
2458;SDS011;1241;50.920;6.936;2022-09-21T14:42:44;2.23;;;1.87;;
2458;SDS011;1241;50.920;6.936;2022-09-21T14:45:15;2.87;;;2.07;;
2458;SDS011;1241;50.920;6.936;2022-09-21T14:50:31;3.03;;;1.90;;
2458;SDS011;1241;50.920;6.936;2022-09-21T15:01:33;1.80;;;1.70;;
2458;SDS011;1241;50.920;6.936;2022-09-21T15:12:58;2.90;;;2.03;;
2458;SDS011;1241;50.920;6.936;2022-09-21T15:18:19;2.17;;;1.70;;
2458;SDS011;1241;50.920;6.936;2022-09-21T15:20:59;3.03;;;2.13;;
2458;SDS011;1241;50.920;6.936;2022-09-21T15:23:31;1.90;;;1.70;;
2458;SDS011;1241;50.920;6.936;2022-09-21T15:26:06;2.10;;;1.90;;
2458;SDS011;1241;50.920;6.936;2022-09-21T15:28:46;2.17;;;1.97;;
2458;SDS011;1241;50.920;6.936;2022-09-21T15:31:17;2.07;;;1.97;;
2458;SDS011;1241;50.920;6.936;2022-09-21T15:33:43;2.40;;;2.03;;
2458;SDS011;1241;50.920;6.936;2022-09-21T15:36:12;2.67;;;2.43;;
2458;SDS011;1241;50.920;6.936;2022-09-21T15:38:46;2.43;;;1.83;;
2458;SDS011;1241;50.920;6.936;2022-09-21T15:42:04;2.60;;;1.77;;
2458;SDS011;1241;50.920;6.936;2022-09-21T15:44:11;4.80;;;1.73;;
2458;SDS011;1241;50.920;6.936;2022-09-21T15:46:40;2.50;;;2.30;;
2458;SDS011;1241;50.920;6.936;2022-09-21T15:49:10;3.93;;;2.00;;
2458;SDS011;1241;50.920;6.936;2022-09-21T15:51:45;2.67;;;1.40;;
2458;SDS011;1241;50.920;6.936;2022-09-21T15:54:20;2.87;;;1.70;;
2458;SDS011;1241;50.920;6.936;2022-09-21T15:56:57;1.97;;;1.83;;
2458;SDS011;1241;50.920;6.936;2022-09-21T15:59:24;3.43;;;2.23;;
2458;SDS011;1241;50.920;6.936;2022-09-21T16:01:51;1.80;;;1.70;;
2458;SDS011;1241;50.920;6.936;2022-09-21T16:04:20;7.87;;;2.30;;
2458;SDS011;1241;50.920;6.936;2022-09-21T16:07:05;1.87;;;1.67;;
2458;SDS011;1241;50.920;6.936;2022-09-21T16:09:43;3.10;;;1.90;;
2458;SDS011;1241;50.920;6.936;2022-09-21T16:14:51;2.17;;;2.07;;
2458;SDS011;1241;50.920;6.936;2022-09-21T16:22:28;1.70;;;1.27;;
2458;SDS011;1241;50.920;6.936;2022-09-21T16:24:55;2.17;;;1.90;;
2458;SDS011;1241;50.920;6.936;2022-09-21T16:27:27;2.83;;;1.93;;
2458;SDS011;1241;50.920;6.936;2022-09-21T16:29:56;6.43;;;2.20;;
2458;SDS011;1241;50.920;6.936;2022-09-21T16:32:27;2.43;;;1.83;;
2458;SDS011;1241;50.920;6.936;2022-09-21T16:35:20;1.70;;;1.60;;
2458;SDS011;1241;50.920;6.936;2022-09-21T16:37:53;2.83;;;2.60;;
2458;SDS011;1241;50.920;6.936;2022-09-21T16:40:22;2.63;;;2.13;;
2458;SDS011;1241;50.920;6.936;2022-09-21T16:42:49;5.10;;;2.10;;
2458;SDS011;1241;50.920;6.936;2022-09-21T16:45:16;2.67;;;2.30;;
2458;SDS011;1241;50.920;6.936;2022-09-21T16:47:52;3.00;;;1.93;;
2458;SDS011;1241;50.920;6.936;2022-09-21T16:50:18;2.87;;;1.83;;
2458;SDS011;1241;50.920;6.936;2022-09-21T16:52:44;3.60;;;3.30;;
2458;SDS011;1241;50.920;6.936;2022-09-21T16:55:13;4.57;;;2.20;;
2458;SDS011;1241;50.920;6.936;2022-09-21T16:57:42;3.50;;;1.93;;
2458;SDS011;1241;50.920;6.936;2022-09-21T17:00:11;3.80;;;2.30;;
2458;SDS011;1241;50.920;6.936;2022-09-21T17:02:37;2.50;;;1.83;;
2458;SDS011;1241;50.920;6.936;2022-09-21T17:05:07;2.27;;;2.07;;
2458;SDS011;1241;50.920;6.936;2022-09-21T17:07:33;5.17;;;1.90;;
2458;SDS011;1241;50.920;6.936;2022-09-21T17:10:00;2.30;;;1.63;;
2458;SDS011;1241;50.920;6.936;2022-09-21T17:12:34;4.83;;;3.27;;
2458;SDS011;1241;50.920;6.936;2022-09-21T17:15:02;4.83;;;2.33;;
2458;SDS011;1241;50.920;6.936;2022-09-21T17:17:32;2.13;;;1.90;;
2458;SDS011;1241;50.920;6.936;2022-09-21T17:19:57;4.00;;;2.40;;
2458;SDS011;1241;50.920;6.936;2022-09-21T17:22:30;3.90;;;2.40;;
2458;SDS011;1241;50.920;6.936;2022-09-21T17:24:56;6.13;;;2.50;;
2458;SDS011;1241;50.920;6.936;2022-09-21T17:27:24;3.90;;;2.00;;
2458;SDS011;1241;50.920;6.936;2022-09-21T17:29:53;3.10;;;2.53;;
2458;SDS011;1241;50.920;6.936;2022-09-21T17:32:21;3.83;;;2.50;;
2458;SDS011;1241;50.920;6.936;2022-09-21T17:34:53;7.30;;;5.20;;
2458;SDS011;1241;50.920;6.936;2022-09-21T17:37:25;7.10;;;4.47;;
2458;SDS011;1241;50.920;6.936;2022-09-21T17:39:51;5.20;;;3.90;;
2458;SDS011;1241;50.920;6.936;2022-09-21T17:42:18;4.63;;;3.95;;
2458;SDS011;1241;50.920;6.936;2022-09-21T17:47:26;4.37;;;3.93;;
2458;SDS011;1241;50.920;6.936;2022-09-21T17:49:58;5.75;;;3.90;;
2458;SDS011;1241;50.920;6.936;2022-09-21T17:52:32;5.55;;;4.10;;
2458;SDS011;1241;50.920;6.936;2022-09-21T17:55:16;5.82;;;4.32;;
2458;SDS011;1241;50.920;6.936;2022-09-21T18:00:26;4.47;;;3.90;;
2458;SDS011;1241;50.920;6.936;2022-09-21T18:03:08;6.90;;;4.60;;
2458;SDS011;1241;50.920;6.936;2022-09-21T18:05:44;4.13;;;3.57;;
2458;SDS011;1241;50.920;6.936;2022-09-21T18:08:10;5.85;;;5.07;;
2458;SDS011;1241;50.920;6.936;2022-09-21T18:10:36;11.20;;;8.67;;
2458;SDS011;1241;50.920;6.936;2022-09-21T18:13:14;9.13;;;6.70;;
2458;SDS011;1241;50.920;6.936;2022-09-21T18:15:55;7.93;;;5.45;;
2458;SDS011;1241;50.920;6.936;2022-09-21T18:21:14;9.13;;;4.20;;
2458;SDS011;1241;50.920;6.936;2022-09-21T18:26:20;5.87;;;4.53;;
2458;SDS011;1241;50.920;6.936;2022-09-21T18:28:47;5.57;;;4.25;;
2458;SDS011;1241;50.920;6.936;2022-09-21T18:34:17;6.30;;;3.92;;
2458;SDS011;1241;50.920;6.936;2022-09-21T18:55:43;7.80;;;5.45;;
2458;SDS011;1241;50.920;6.936;2022-09-21T18:58:13;8.98;;;5.63;;
2458;SDS011;1241;50.920;6.936;2022-09-21T19:00:40;9.02;;;5.85;;
2458;SDS011;1241;50.920;6.936;2022-09-21T19:03:06;8.18;;;6.60;;
2458;SDS011;1241;50.920;6.936;2022-09-21T19:05:39;7.88;;;6.90;;
2458;SDS011;1241;50.920;6.936;2022-09-21T19:10:46;9.52;;;6.75;;
2458;SDS011;1241;50.920;6.936;2022-09-21T19:18:45;8.63;;;6.03;;
2458;SDS011;1241;50.920;6.936;2022-09-21T19:29:56;6.13;;;5.10;;
2458;SDS011;1241;50.920;6.936;2022-09-21T19:33:14;5.93;;;4.93;;
2458;SDS011;1241;50.920;6.936;2022-09-21T19:35:17;7.07;;;6.03;;
2458;SDS011;1241;50.920;6.936;2022-09-21T19:37:45;8.93;;;5.85;;
2458;SDS011;1241;50.920;6.936;2022-09-21T19:40:16;6.53;;;5.47;;